createdAt,value
2024-04-14T00:02:16.981Z,16.33
2024-04-14T00:04:47.332Z,16.35
2024-04-14T00:07:15.027Z,16.38
2024-04-14T00:09:42.493Z,16.29
2024-04-14T00:12:10.154Z,16.36
2024-04-14T00:14:37.681Z,16.33
2024-04-14T00:17:05.237Z,16.22
2024-04-14T00:19:32.845Z,16.25
2024-04-14T00:22:01.037Z,16.25
2024-04-14T00:24:28.623Z,16.36
2024-04-14T00:26:56.267Z,16.32
2024-04-14T00:29:24.000Z,16.36
2024-04-14T00:31:51.598Z,16.38
2024-04-14T00:34:19.105Z,16.41
2024-04-14T00:36:46.708Z,16.29
2024-04-14T00:39:14.217Z,16.23
2024-04-14T00:41:41.720Z,16.23
2024-04-14T00:44:09.375Z,16.04
2024-04-14T00:46:37.430Z,16.05
2024-04-14T00:49:05.555Z,16.15
2024-04-14T00:51:34.045Z,16.19
2024-04-14T00:54:01.750Z,16.12
2024-04-14T00:56:29.675Z,16.05
2024-04-14T00:58:57.753Z,16.03
2024-04-14T01:01:25.373Z,15.89
2024-04-14T01:03:53.089Z,15.85
2024-04-14T01:06:20.634Z,15.73
2024-04-14T01:08:48.523Z,15.68
2024-04-14T01:11:16.147Z,15.59
2024-04-14T01:13:48.032Z,15.47
2024-04-14T01:16:15.592Z,15.37
2024-04-14T01:18:43.167Z,15.41
2024-04-14T01:21:11.034Z,15.28
2024-04-14T01:23:39.039Z,15.30
2024-04-14T01:26:06.595Z,15.16
2024-04-14T01:28:34.127Z,15.26
2024-04-14T01:31:01.974Z,15.36
2024-04-14T01:33:29.526Z,15.04
2024-04-14T01:35:57.083Z,15.17
2024-04-14T01:38:26.561Z,15.18
2024-04-14T01:40:54.468Z,15.16
2024-04-14T01:43:22.052Z,15.04
2024-04-14T01:45:49.736Z,14.87
2024-04-14T01:48:17.487Z,14.89
2024-04-14T01:50:44.980Z,14.89
2024-04-14T01:53:12.662Z,14.97
2024-04-14T01:55:44.212Z,14.96
2024-04-14T01:58:11.789Z,14.87
2024-04-14T02:00:39.353Z,14.77
2024-04-14T02:03:07.029Z,14.82
2024-04-14T02:05:34.567Z,14.83
2024-04-14T02:08:02.235Z,14.72
2024-04-14T02:10:29.751Z,14.74
2024-04-14T02:12:57.431Z,14.84
2024-04-14T02:15:25.192Z,14.68
2024-04-14T02:17:52.914Z,14.71
2024-04-14T02:20:20.569Z,14.62
2024-04-14T02:22:48.152Z,14.72
2024-04-14T02:25:15.736Z,14.79
2024-04-14T02:27:43.272Z,14.78
2024-04-14T02:30:11.093Z,14.87
2024-04-14T02:32:38.722Z,14.76
2024-04-14T02:35:06.472Z,14.74
2024-04-14T02:37:34.179Z,14.53
2024-04-14T02:40:01.874Z,14.69
2024-04-14T02:42:35.491Z,14.82
2024-04-14T02:45:03.327Z,14.79
2024-04-14T02:47:30.967Z,14.68
2024-04-14T02:49:58.509Z,14.67
2024-04-14T02:52:26.060Z,14.64
2024-04-14T02:54:53.521Z,14.71
2024-04-14T02:57:20.978Z,14.67
2024-04-14T02:59:48.538Z,14.68
2024-04-14T03:02:16.127Z,14.82
2024-04-14T03:04:43.666Z,14.70
2024-04-14T03:07:11.347Z,14.75
2024-04-14T03:09:38.922Z,14.65
2024-04-14T03:12:07.260Z,14.67
2024-04-14T03:14:34.782Z,14.62
2024-04-14T03:17:02.416Z,14.66
2024-04-14T03:19:29.871Z,14.50
2024-04-14T03:21:57.478Z,14.46
2024-04-14T03:24:25.082Z,14.24
2024-04-14T03:26:53.486Z,14.49
2024-04-14T03:29:21.993Z,14.51
2024-04-14T03:31:49.610Z,14.48
2024-04-14T03:34:17.087Z,14.45
2024-04-14T03:36:44.570Z,14.39
2024-04-14T03:39:12.050Z,14.35
2024-04-14T03:41:39.557Z,14.53
2024-04-14T03:44:07.076Z,14.28
2024-04-14T03:46:34.574Z,14.11
2024-04-14T03:49:02.191Z,14.08
2024-04-14T03:51:29.718Z,14.09
2024-04-14T03:53:57.268Z,13.99
2024-04-14T03:56:24.707Z,14.17
2024-04-14T03:58:52.246Z,16.37
2024-04-14T04:01:19.964Z,16.59
2024-04-14T04:03:47.955Z,17.46
2024-04-14T04:06:15.582Z,18.24
2024-04-14T04:08:43.114Z,18.42
2024-04-14T04:11:10.689Z,17.62
2024-04-14T04:13:38.101Z,18.06
2024-04-14T04:16:07.720Z,17.91
2024-04-14T04:18:36.471Z,18.28
2024-04-14T04:21:05.763Z,18.19
2024-04-14T04:23:33.434Z,17.80
2024-04-14T04:26:02.151Z,15.95
2024-04-14T04:28:29.874Z,14.75
2024-04-14T04:30:57.969Z,15.45
2024-04-14T04:33:25.829Z,16.97
2024-04-14T04:35:54.085Z,17.01
2024-04-14T04:38:25.795Z,17.92
2024-04-14T04:40:54.266Z,17.92
2024-04-14T04:43:24.271Z,17.50
2024-04-14T04:45:52.271Z,18.62
2024-04-14T04:48:19.976Z,18.53
2024-04-14T04:50:47.981Z,19.14
2024-04-14T04:53:15.675Z,19.12
2024-04-14T04:55:43.948Z,18.11
2024-04-14T04:58:12.285Z,18.58
2024-04-14T05:00:39.788Z,18.22
2024-04-14T05:03:07.479Z,18.38
2024-04-14T05:05:35.141Z,18.15
2024-04-14T05:08:03.198Z,18.31
2024-04-14T05:10:32.407Z,18.06
2024-04-14T05:13:00.508Z,17.96
2024-04-14T05:15:28.398Z,18.31
2024-04-14T05:17:56.387Z,18.23
2024-04-14T05:20:24.367Z,18.46
2024-04-14T05:22:51.827Z,16.92
2024-04-14T05:25:19.369Z,17.10
2024-04-14T05:27:47.005Z,17.30
2024-04-14T05:30:14.648Z,17.10
2024-04-14T05:32:42.140Z,16.74
2024-04-14T05:35:09.869Z,16.72
2024-04-14T05:37:37.400Z,16.25
2024-04-14T05:40:05.353Z,17.68
2024-04-14T05:42:33.046Z,16.72
2024-04-14T05:45:00.795Z,16.11
2024-04-14T05:47:28.344Z,15.96
2024-04-14T05:49:56.650Z,16.24
2024-04-14T05:52:26.134Z,16.43
2024-04-14T05:54:54.565Z,16.52
2024-04-14T05:57:22.094Z,16.97
2024-04-14T05:59:49.641Z,17.58
2024-04-14T06:02:17.133Z,17.52
2024-04-14T06:04:44.655Z,17.58
2024-04-14T06:07:12.197Z,17.80
2024-04-14T06:09:39.839Z,18.99
2024-04-14T06:12:07.755Z,19.34
2024-04-14T06:14:35.237Z,19.94
2024-04-14T06:17:02.863Z,20.37
2024-04-14T06:19:30.458Z,20.07
2024-04-14T06:21:58.083Z,20.75
2024-04-14T06:24:25.693Z,21.57
2024-04-14T06:26:53.290Z,21.00
2024-04-14T06:29:20.815Z,21.22
2024-04-14T06:31:48.379Z,21.71
2024-04-14T06:34:15.933Z,21.96
2024-04-14T06:36:43.430Z,22.30
2024-04-14T06:39:11.089Z,21.79
2024-04-14T06:41:38.545Z,22.17
2024-04-14T06:44:05.996Z,22.82
2024-04-14T06:46:33.572Z,23.23
2024-04-14T06:49:01.237Z,23.21
2024-04-14T06:51:28.872Z,23.72
2024-04-14T06:53:56.448Z,23.44
2024-04-14T06:56:24.440Z,22.99
2024-04-14T06:58:52.007Z,23.07
2024-04-14T07:01:19.618Z,23.20
2024-04-14T07:03:47.249Z,22.91
2024-04-14T07:06:14.847Z,22.96
2024-04-14T07:08:42.358Z,23.11
2024-04-14T07:11:10.012Z,23.53
2024-04-14T07:13:37.593Z,23.49
2024-04-14T07:16:05.453Z,23.33
2024-04-14T07:18:33.169Z,23.51
2024-04-14T07:21:04.462Z,22.12
2024-04-14T07:23:32.134Z,21.72
2024-04-14T07:25:59.436Z,21.86
2024-04-14T07:28:26.935Z,21.90
2024-04-14T07:30:54.336Z,22.61
2024-04-14T07:33:21.992Z,23.33
2024-04-14T07:35:49.715Z,23.43
2024-04-14T07:38:17.323Z,23.99
2024-04-14T07:40:44.911Z,24.13
2024-04-14T07:43:12.428Z,24.13
2024-04-14T07:45:40.002Z,24.33
2024-04-14T07:48:07.786Z,24.59
2024-04-14T07:50:37.230Z,24.70
2024-04-14T07:53:04.977Z,24.55
2024-04-14T07:55:32.547Z,24.64
2024-04-14T07:58:00.139Z,24.82
2024-04-14T08:00:27.815Z,24.80
2024-04-14T08:02:55.299Z,24.91
2024-04-14T08:05:22.989Z,24.82
2024-04-14T08:07:50.635Z,25.00
2024-04-14T08:10:18.372Z,25.01
2024-04-14T08:12:45.975Z,25.11
2024-04-14T08:15:13.600Z,25.08
2024-04-14T08:17:41.134Z,25.11
2024-04-14T08:20:09.145Z,25.29
2024-04-14T08:22:36.682Z,25.19
2024-04-14T08:25:04.546Z,25.30
2024-04-14T08:27:32.160Z,25.44
2024-04-14T08:29:59.800Z,25.49
2024-04-14T08:32:27.502Z,25.65
2024-04-14T08:34:55.251Z,25.80
2024-04-14T08:37:22.830Z,25.86
2024-04-14T08:39:50.288Z,26.03
2024-04-14T08:42:19.304Z,26.13
2024-04-14T08:44:47.846Z,26.29
2024-04-14T08:47:18.209Z,26.50
2024-04-14T08:49:47.315Z,26.39
2024-04-14T08:52:16.742Z,26.60
2024-04-14T08:54:44.655Z,26.58
2024-04-14T08:57:12.981Z,26.77
2024-04-14T08:59:42.219Z,26.61
2024-04-14T09:02:11.881Z,26.85
2024-04-14T09:04:40.623Z,27.04
2024-04-14T09:07:08.411Z,26.98
2024-04-14T09:09:36.732Z,26.90
2024-04-14T09:12:04.533Z,26.82
2024-04-14T09:14:32.121Z,26.91
2024-04-14T09:16:59.606Z,27.06
2024-04-14T09:19:27.199Z,26.96
2024-04-14T09:21:55.187Z,26.99
2024-04-14T09:24:22.731Z,27.12
2024-04-14T09:26:50.286Z,26.71
2024-04-14T09:29:17.720Z,26.82
2024-04-14T09:31:45.247Z,26.91
2024-04-14T09:34:13.225Z,27.02
2024-04-14T09:36:41.171Z,27.23
2024-04-14T09:39:10.301Z,27.31
2024-04-14T09:41:37.990Z,27.23
2024-04-14T09:44:06.878Z,27.36
2024-04-14T09:46:35.712Z,27.30
2024-04-14T09:49:05.078Z,27.48
2024-04-14T09:51:33.010Z,27.45
2024-04-14T09:54:02.831Z,27.68
2024-04-14T09:56:30.565Z,27.49
2024-04-14T09:58:58.091Z,27.71
2024-04-14T10:01:32.135Z,27.74
2024-04-14T10:04:01.553Z,27.75
2024-04-14T10:06:31.454Z,27.75
2024-04-14T10:08:59.309Z,27.57
2024-04-14T10:11:27.771Z,27.81
2024-04-14T10:13:56.874Z,27.94
2024-04-14T10:16:26.377Z,27.81
2024-04-14T10:18:54.010Z,27.91
2024-04-14T10:21:22.637Z,27.83
2024-04-14T10:23:52.635Z,27.71
2024-04-14T10:26:20.874Z,27.59
2024-04-14T10:28:56.544Z,27.65
2024-04-14T10:31:28.221Z,27.55
2024-04-14T10:34:06.770Z,27.39
2024-04-14T10:36:39.983Z,27.67
2024-04-14T10:39:07.960Z,27.69
2024-04-14T10:41:36.273Z,27.70
2024-04-14T10:44:03.788Z,27.83
2024-04-14T10:46:32.403Z,27.82
2024-04-14T10:49:00.126Z,27.78
2024-04-14T10:51:27.781Z,27.83
2024-04-14T10:53:55.225Z,27.78
2024-04-14T10:56:22.789Z,27.53
2024-04-14T10:58:50.222Z,27.81
2024-04-14T11:01:18.172Z,27.74
2024-04-14T11:03:47.565Z,27.76
2024-04-14T11:06:15.843Z,27.69
2024-04-14T11:08:44.094Z,27.84
2024-04-14T11:11:12.328Z,27.65
2024-04-14T11:13:40.319Z,27.19
2024-04-14T11:16:08.462Z,27.37
2024-04-14T11:18:36.522Z,27.63
2024-04-14T11:21:04.232Z,27.52
2024-04-14T11:23:32.146Z,27.17
2024-04-14T11:25:59.614Z,27.15
2024-04-14T11:28:27.335Z,27.39
2024-04-14T11:30:55.319Z,27.10
2024-04-14T11:33:23.404Z,26.67
2024-04-14T11:36:00.832Z,26.83
2024-04-14T11:38:29.440Z,26.81
2024-04-14T11:40:57.410Z,27.18
2024-04-14T11:43:24.927Z,27.26
2024-04-14T11:45:52.673Z,27.54
2024-04-14T11:48:20.389Z,27.38
2024-04-14T11:50:48.025Z,27.44
2024-04-14T11:53:15.496Z,27.42
2024-04-14T11:55:42.972Z,27.52
2024-04-14T11:58:10.601Z,27.66
2024-04-14T12:00:38.272Z,27.56
2024-04-14T12:03:06.125Z,27.54
2024-04-14T12:05:33.663Z,27.75
2024-04-14T12:08:01.223Z,27.71
2024-04-14T12:10:28.687Z,27.37
2024-04-14T12:12:56.205Z,27.30
2024-04-14T12:15:23.800Z,27.24
2024-04-14T12:17:51.417Z,27.41
2024-04-14T12:20:18.940Z,27.40
2024-04-14T12:22:46.512Z,27.65
2024-04-14T12:25:14.046Z,27.62
2024-04-14T12:27:41.557Z,27.62
2024-04-14T12:30:09.321Z,27.83
2024-04-14T12:32:36.866Z,27.94
2024-04-14T12:35:05.231Z,27.87
2024-04-14T12:37:33.285Z,27.88
2024-04-14T12:40:01.095Z,27.91
2024-04-14T12:42:28.994Z,27.86
2024-04-14T12:44:56.541Z,27.77
2024-04-14T12:47:24.091Z,27.87
2024-04-14T12:49:51.614Z,27.80
2024-04-14T12:52:19.187Z,27.78
2024-04-14T12:54:46.705Z,27.97
2024-04-14T12:57:14.210Z,28.11
2024-04-14T12:59:41.792Z,28.07
2024-04-14T13:02:09.255Z,28.08
2024-04-14T13:04:37.004Z,27.97
2024-04-14T13:07:04.762Z,27.75
2024-04-14T13:09:32.257Z,27.41
2024-04-14T13:11:59.938Z,27.78
2024-04-14T13:14:27.408Z,27.82
2024-04-14T13:16:54.988Z,27.85
2024-04-14T13:19:23.574Z,27.99
2024-04-14T13:21:51.151Z,28.00
2024-04-14T13:24:19.564Z,27.92
2024-04-14T13:26:47.101Z,27.97
2024-04-14T13:29:14.729Z,28.11
2024-04-14T13:31:42.201Z,28.10
2024-04-14T13:34:09.743Z,27.63
2024-04-14T13:36:37.385Z,27.60
2024-04-14T13:39:04.860Z,27.58
2024-04-14T13:41:32.378Z,27.80
2024-04-14T13:43:59.903Z,27.74
2024-04-14T13:46:27.490Z,27.79
2024-04-14T13:48:55.125Z,27.42
2024-04-14T13:51:22.637Z,27.51
2024-04-14T13:53:50.203Z,27.39
2024-04-14T13:56:17.589Z,27.46
2024-04-14T13:58:45.152Z,27.41
2024-04-14T14:01:12.801Z,27.65
2024-04-14T14:03:40.470Z,27.55
2024-04-14T14:06:07.987Z,27.60
2024-04-14T14:08:35.511Z,27.56
2024-04-14T14:11:03.078Z,27.61
2024-04-14T14:13:30.718Z,27.57
2024-04-14T14:15:58.482Z,27.53
2024-04-14T14:18:26.172Z,27.47
2024-04-14T14:20:53.839Z,27.29
2024-04-14T14:23:21.425Z,27.31
2024-04-14T14:25:49.143Z,27.15
2024-04-14T14:28:16.840Z,27.04
2024-04-14T14:30:44.551Z,27.23
2024-04-14T14:33:12.309Z,27.13
2024-04-14T14:35:39.894Z,27.21
2024-04-14T14:38:07.498Z,27.09
2024-04-14T14:40:35.282Z,27.02
2024-04-14T14:43:03.010Z,26.92
2024-04-14T14:45:33.461Z,26.86
2024-04-14T14:48:01.046Z,26.64
2024-04-14T14:50:30.866Z,26.52
2024-04-14T14:52:58.604Z,26.49
2024-04-14T14:55:26.173Z,26.51
2024-04-14T14:57:53.667Z,26.50
2024-04-14T15:00:21.271Z,26.49
2024-04-14T15:02:48.780Z,26.49
2024-04-14T15:05:16.363Z,26.54
2024-04-14T15:07:49.355Z,26.43
2024-04-14T15:10:17.138Z,26.47
2024-04-14T15:12:44.759Z,26.57
2024-04-14T15:15:12.461Z,26.41
2024-04-14T15:17:40.056Z,26.32
2024-04-14T15:20:08.550Z,26.27
2024-04-14T15:22:36.402Z,26.22
2024-04-14T15:25:04.462Z,26.24
2024-04-14T15:27:32.258Z,26.28
2024-04-14T15:29:59.704Z,26.10
2024-04-14T15:32:27.231Z,26.06
2024-04-14T15:34:54.745Z,25.95
2024-04-14T15:37:22.265Z,25.98
2024-04-14T15:39:50.322Z,25.97
2024-04-14T15:42:17.930Z,26.06
2024-04-14T15:44:45.622Z,26.00
2024-04-14T15:47:13.221Z,25.88
2024-04-14T15:49:40.774Z,25.82
2024-04-14T15:52:09.185Z,25.84
2024-04-14T15:54:36.999Z,25.81
2024-04-14T15:57:04.822Z,25.83
2024-04-14T15:59:32.529Z,25.73
2024-04-14T16:01:59.934Z,25.63
2024-04-14T16:04:27.511Z,25.66
2024-04-14T16:06:55.206Z,25.60
2024-04-14T16:09:25.140Z,25.49
2024-04-14T16:11:54.241Z,25.45
2024-04-14T16:14:21.758Z,25.50
2024-04-14T16:16:49.252Z,25.52
2024-04-14T16:19:17.002Z,25.61
2024-04-14T16:21:45.896Z,25.44
2024-04-14T16:24:13.592Z,25.56
2024-04-14T16:26:41.056Z,25.58
2024-04-14T16:29:08.645Z,25.52
2024-04-14T16:31:39.351Z,25.47
2024-04-14T16:34:07.303Z,25.59
2024-04-14T16:36:38.526Z,25.52
2024-04-14T16:39:07.852Z,25.53
2024-04-14T16:41:35.409Z,25.54
2024-04-14T16:44:02.863Z,25.51
2024-04-14T16:46:30.408Z,25.34
2024-04-14T16:48:58.179Z,25.12
2024-04-14T16:51:25.958Z,25.29
2024-04-14T16:53:53.691Z,25.29
2024-04-14T16:56:21.138Z,25.08
2024-04-14T16:58:48.768Z,25.09
2024-04-14T17:01:16.421Z,25.07
2024-04-14T17:03:44.204Z,24.99
2024-04-14T17:06:11.777Z,24.84
2024-04-14T17:08:39.456Z,24.82
2024-04-14T17:11:07.130Z,24.84
2024-04-14T17:13:34.637Z,24.69
2024-04-14T17:16:02.219Z,24.65
2024-04-14T17:18:29.697Z,24.51
2024-04-14T17:20:57.307Z,24.41
2024-04-14T17:23:24.991Z,24.40
2024-04-14T17:25:52.710Z,24.42
2024-04-14T17:28:20.360Z,24.35
2024-04-14T17:30:47.994Z,24.26
2024-04-14T17:33:15.641Z,24.26
2024-04-14T17:35:44.588Z,24.19
2024-04-14T17:38:12.177Z,24.08
2024-04-14T17:40:39.672Z,24.12
2024-04-14T17:43:07.331Z,24.02
2024-04-14T17:45:34.967Z,24.12
2024-04-14T17:48:02.537Z,24.00
2024-04-14T17:50:30.147Z,23.82
2024-04-14T17:52:57.608Z,23.86
2024-04-14T17:55:25.199Z,23.80
2024-04-14T17:57:52.731Z,23.76
2024-04-14T18:00:20.244Z,23.61
2024-04-14T18:02:47.846Z,23.70
2024-04-14T18:05:15.572Z,23.54
2024-04-14T18:07:43.107Z,23.50
2024-04-14T18:10:10.869Z,23.51
2024-04-14T18:12:38.457Z,23.39
2024-04-14T18:15:06.587Z,23.21
2024-04-14T18:17:34.186Z,23.13
2024-04-14T18:20:01.772Z,22.98
2024-04-14T18:22:29.328Z,22.92
2024-04-14T18:24:56.968Z,23.00
2024-04-14T18:27:24.560Z,22.97
2024-04-14T18:29:52.300Z,22.93
2024-04-14T18:32:19.858Z,23.10
2024-04-14T18:34:50.496Z,23.13
2024-04-14T18:37:17.992Z,23.01
2024-04-14T18:39:45.546Z,23.03
2024-04-14T18:42:13.101Z,22.84
2024-04-14T18:44:40.648Z,22.87
2024-04-14T18:47:08.205Z,22.81
2024-04-14T18:49:35.779Z,22.88
2024-04-14T18:52:03.474Z,22.84
2024-04-14T18:54:30.937Z,22.85
2024-04-14T18:56:59.405Z,22.92
2024-04-14T18:59:27.032Z,22.95
2024-04-14T19:01:54.679Z,22.91
2024-04-14T19:04:23.340Z,22.83
2024-04-14T19:06:51.915Z,22.77
2024-04-14T19:09:19.508Z,22.85
2024-04-14T19:11:47.003Z,22.79
2024-04-14T19:14:19.068Z,22.74
2024-04-14T19:16:46.547Z,22.60
2024-04-14T19:19:14.060Z,22.62
2024-04-14T19:21:41.620Z,22.61
2024-04-14T19:24:09.135Z,22.56
2024-04-14T19:26:36.611Z,22.58
2024-04-14T19:29:05.048Z,22.25
2024-04-14T19:31:32.701Z,22.11
2024-04-14T19:34:00.433Z,22.08
2024-04-14T19:36:27.899Z,21.81
2024-04-14T19:38:55.457Z,21.73
2024-04-14T19:41:22.966Z,21.81
2024-04-14T19:43:50.437Z,21.69
2024-04-14T19:46:17.934Z,21.57
2024-04-14T19:48:45.527Z,21.41
2024-04-14T19:51:13.041Z,21.39
2024-04-14T19:53:40.503Z,21.39
2024-04-14T19:56:07.965Z,21.42
2024-04-14T19:58:35.448Z,21.22
2024-04-14T20:01:05.426Z,21.31
2024-04-14T20:03:34.955Z,21.33
2024-04-14T20:06:02.497Z,21.19
2024-04-14T20:08:29.966Z,21.08
2024-04-14T20:10:57.588Z,20.99
2024-04-14T20:13:25.087Z,21.04
2024-04-14T20:15:52.577Z,21.13
2024-04-14T20:18:20.274Z,21.10
2024-04-14T20:20:48.374Z,20.88
2024-04-14T20:23:16.280Z,20.82
2024-04-14T20:25:43.810Z,20.71
2024-04-14T20:28:11.324Z,20.68
2024-04-14T20:30:39.121Z,20.75
2024-04-14T20:33:06.693Z,20.64
2024-04-14T20:35:34.141Z,20.60
2024-04-14T20:38:01.653Z,20.43
2024-04-14T20:40:31.701Z,20.34
2024-04-14T20:43:00.737Z,20.13
2024-04-14T20:45:28.323Z,20.16
2024-04-14T20:47:56.005Z,20.15
2024-04-14T20:50:23.611Z,20.03
2024-04-14T20:52:51.110Z,19.97
2024-04-14T20:55:18.727Z,19.92
2024-04-14T20:57:46.201Z,19.82
2024-04-14T21:00:14.034Z,19.84
2024-04-14T21:02:41.619Z,19.94
2024-04-14T21:05:09.291Z,20.03
2024-04-14T21:07:36.827Z,20.15
2024-04-14T21:10:04.658Z,20.15
2024-04-14T21:12:35.363Z,20.25
2024-04-14T21:15:02.999Z,20.23
2024-04-14T21:17:30.492Z,20.27
2024-04-14T21:19:58.615Z,20.28
2024-04-14T21:22:26.185Z,20.24
2024-04-14T21:24:54.039Z,20.30
2024-04-14T21:27:21.587Z,20.21
2024-04-14T21:29:49.134Z,20.03
2024-04-14T21:32:16.811Z,19.92
2024-04-14T21:34:44.653Z,19.90
2024-04-14T21:37:12.299Z,19.74
2024-04-14T21:39:39.909Z,19.62
2024-04-14T21:42:08.846Z,19.54
2024-04-14T21:44:36.778Z,19.62
2024-04-14T21:47:04.356Z,19.57
2024-04-14T21:49:31.832Z,19.42
2024-04-14T21:51:59.436Z,19.32
2024-04-14T21:54:26.972Z,19.22
2024-04-14T21:56:54.494Z,19.22
2024-04-14T21:59:21.994Z,19.05
2024-04-14T22:01:49.681Z,19.10
2024-04-14T22:04:21.524Z,18.88
2024-04-14T22:06:50.126Z,18.76
2024-04-14T22:09:17.789Z,18.57
2024-04-14T22:11:45.363Z,18.44
2024-04-14T22:14:12.884Z,18.43
2024-04-14T22:16:40.420Z,18.41
2024-04-14T22:19:08.016Z,18.41
2024-04-14T22:21:35.638Z,18.29
2024-04-14T22:24:03.200Z,18.09
2024-04-14T22:26:30.683Z,18.27
2024-04-14T22:28:58.403Z,18.30
2024-04-14T22:31:26.141Z,18.17
2024-04-14T22:33:53.822Z,18.00
2024-04-14T22:36:21.327Z,17.95
2024-04-14T22:38:48.931Z,17.93
2024-04-14T22:41:16.451Z,17.94
2024-04-14T22:43:44.099Z,17.88
2024-04-14T22:46:13.195Z,17.82
2024-04-14T22:48:40.785Z,17.79
2024-04-14T22:51:08.511Z,17.78
2024-04-14T22:53:36.035Z,17.72
2024-04-14T22:56:03.702Z,17.71
2024-04-14T22:58:31.224Z,17.67
2024-04-14T23:00:58.819Z,17.68
2024-04-14T23:03:26.467Z,17.61
2024-04-14T23:05:53.991Z,17.49
2024-04-14T23:08:21.460Z,17.48
2024-04-14T23:10:48.992Z,17.33
2024-04-14T23:13:16.511Z,17.29
2024-04-14T23:15:44.135Z,17.27
2024-04-14T23:18:11.842Z,17.22
2024-04-14T23:20:39.415Z,17.10
2024-04-14T23:23:06.868Z,17.10
2024-04-14T23:25:34.388Z,17.06
2024-04-14T23:28:01.849Z,17.26
2024-04-14T23:30:29.302Z,17.18
2024-04-14T23:32:56.808Z,17.14
2024-04-14T23:35:24.399Z,17.16
2024-04-14T23:37:51.850Z,17.08
2024-04-14T23:40:19.425Z,17.07
2024-04-14T23:42:46.978Z,16.81
2024-04-14T23:45:14.568Z,16.80
2024-04-14T23:47:42.133Z,16.74
2024-04-14T23:50:09.662Z,16.86
2024-04-14T23:52:37.244Z,16.82
2024-04-14T23:55:05.070Z,16.83
2024-04-14T23:57:34.164Z,16.76
